Time;durP1;ratioP1;P1;durP2;ratioP2;P2;SDS_P1;SDS_P2;PMS_P1;PMS_P2;Temp;Humidity;BMP_temperature;BMP_pressure;BME280_temperature;BME280_humidity;BME280_pressure;Samples;Min_cycle;Max_cycle;Signal;HPM_P1;HPM_P2
2022/08/21 00:02:20;;;;;;;7.47;2.70;;;18.10;99.90;;;;;;4980217;28;20039;-69
2022/08/21 00:04:47;;;;;;;9.55;2.97;;;18.10;99.90;;;;;;4980015;28;20433;-69
2022/08/21 00:07:13;;;;;;;6.05;3.00;;;18.10;99.90;;;;;;4980161;28;20038;-69
2022/08/21 00:09:39;;;;;;;7.78;2.70;;;18.10;99.90;;;;;;4979947;28;20441;-69
2022/08/21 00:12:06;;;;;;;6.85;3.70;;;18.00;99.90;;;;;;4980108;28;20035;-69
2022/08/21 00:14:32;;;;;;;9.05;3.15;;;18.00;99.90;;;;;;4979797;28;20050;-69
2022/08/21 00:16:58;;;;;;;5.55;2.90;;;17.90;99.90;;;;;;4979692;28;20042;-70
2022/08/21 00:19:25;;;;;;;5.65;3.20;;;17.80;99.90;;;;;;4979756;28;20038;-69
2022/08/21 00:21:52;;;;;;;5.65;2.55;;;17.80;99.90;;;;;;4979745;28;20353;-69
2022/08/21 00:24:19;;;;;;;7.82;3.20;;;17.80;99.90;;;;;;4979923;28;20337;-69
2022/08/21 00:26:46;;;;;;;10.50;3.42;;;17.80;99.90;;;;;;4979242;28;20074;-69
2022/08/21 00:29:11;;;;;;;6.60;2.80;;;17.80;99.90;;;;;;4979680;28;20042;-69
2022/08/21 00:31:37;;;;;;;7.30;2.83;;;17.80;99.90;;;;;;4979746;28;20062;-69
2022/08/21 00:34:03;;;;;;;7.35;3.17;;;17.80;99.90;;;;;;4979326;28;20039;-69
2022/08/21 00:36:29;;;;;;;7.22;3.03;;;17.70;99.90;;;;;;4979586;28;20094;-69
2022/08/21 00:38:55;;;;;;;9.88;3.00;;;17.70;99.90;;;;;;4979522;28;20141;-69
2022/08/21 00:41:23;;;;;;;8.57;3.35;;;17.70;99.90;;;;;;4979311;28;20043;-69
2022/08/21 00:43:50;;;;;;;8.88;3.28;;;17.60;99.90;;;;;;4979260;28;20345;-69
2022/08/21 00:46:16;;;;;;;6.20;3.30;;;17.60;99.90;;;;;;4979483;28;20345;-69
2022/08/21 00:48:41;;;;;;;7.00;2.90;;;17.60;99.90;;;;;;4979027;28;20039;-69
2022/08/21 00:51:22;;;;;;;7.03;2.90;;;17.60;99.90;;;;;;4979189;28;20093;-69
2022/08/21 00:53:50;;;;;;;5.28;3.03;;;17.50;99.90;;;;;;4979263;28;20097;-69
2022/08/21 00:56:16;;;;;;;9.30;3.63;;;17.50;99.90;;;;;;4978849;28;20039;-69
2022/08/21 00:58:42;;;;;;;7.43;3.17;;;17.50;99.90;;;;;;4979173;28;20333;-69
2022/08/21 01:01:09;;;;;;;7.30;3.00;;;17.50;99.90;;;;;;4979017;28;20050;-69
2022/08/21 01:03:35;;;;;;;6.97;3.17;;;17.50;99.90;;;;;;4978765;28;20038;-69
2022/08/21 01:06:02;;;;;;;6.70;3.33;;;17.40;99.90;;;;;;4978758;28;20042;-69
2022/08/21 01:08:29;;;;;;;9.95;3.00;;;17.40;99.90;;;;;;4978841;28;20476;-69
2022/08/21 01:10:56;;;;;;;6.63;3.30;;;17.40;99.90;;;;;;4978791;28;20345;-69
2022/08/21 01:13:24;;;;;;;5.95;2.95;;;17.40;99.90;;;;;;4978819;28;20046;-69
2022/08/21 01:15:52;;;;;;;7.88;3.30;;;17.30;99.90;;;;;;4978530;28;20047;-69
2022/08/21 01:18:19;;;;;;;6.35;2.70;;;17.30;99.90;;;;;;4978673;28;20426;-69
2022/08/21 01:21:08;;;;;;;8.63;3.60;;;17.20;99.90;;;;;;4993881;28;20503;-69
2022/08/21 01:23:36;;;;;;;7.00;3.15;;;17.20;99.90;;;;;;4978557;28;20108;-69
2022/08/21 01:26:03;;;;;;;5.95;2.55;;;17.20;99.90;;;;;;4978618;28;20047;-69
2022/08/21 01:28:34;;;;;;;12.00;3.25;;;17.20;99.90;;;;;;4977872;28;20050;-69
2022/08/21 01:31:03;;;;;;;5.78;3.03;;;17.20;99.90;;;;;;4978357;28;20062;-69
2022/08/21 01:33:28;;;;;;;4.55;3.00;;;17.20;99.90;;;;;;4978510;28;20051;-69
2022/08/21 01:35:54;;;;;;;5.53;3.20;;;17.20;99.90;;;;;;4978569;28;20445;-69
2022/08/21 01:38:20;;;;;;;5.57;2.83;;;17.30;99.90;;;;;;4978248;28;20034;-69
2022/08/21 01:40:46;;;;;;;8.38;3.13;;;17.20;99.90;;;;;;4978231;28;20042;-71
2022/08/21 01:43:11;;;;;;;5.40;3.15;;;17.20;99.90;;;;;;4978093;28;20047;-69
2022/08/21 01:45:37;;;;;;;6.15;3.00;;;17.20;99.90;;;;;;4978046;28;20122;-69
2022/08/21 01:48:03;;;;;;;6.43;2.80;;;17.10;99.90;;;;;;4978277;28;20138;-69
2022/08/21 01:50:29;;;;;;;5.78;3.05;;;17.10;99.90;;;;;;4978070;28;20042;-69
2022/08/21 01:52:55;;;;;;;5.68;3.00;;;17.10;99.90;;;;;;4978364;28;20398;-69
2022/08/21 01:55:22;;;;;;;6.60;3.30;;;17.10;99.90;;;;;;4977808;28;20121;-69
2022/08/21 01:57:48;;;;;;;8.75;3.38;;;17.10;99.90;;;;;;4977616;28;20097;-69
2022/08/21 02:00:17;;;;;;;8.20;3.60;;;17.10;99.90;;;;;;4978077;28;20398;-69
2022/08/21 02:02:43;;;;;;;8.52;3.17;;;17.10;99.90;;;;;;4977962;28;20054;-69
2022/08/21 02:05:11;;;;;;;10.15;3.75;;;17.10;99.90;;;;;;4977918;28;20038;-69
2022/08/21 02:07:45;;;;;;;11.77;4.05;;;17.00;99.90;;;;;;4977849;28;20091;-69
2022/08/21 02:10:13;;;;;;;7.90;3.60;;;17.00;99.90;;;;;;4977853;28;20046;-69
2022/08/21 02:12:39;;;;;;;9.00;3.65;;;17.00;99.90;;;;;;4977730;28;20137;-69
2022/08/21 02:15:06;;;;;;;7.35;3.45;;;17.10;99.90;;;;;;4977421;28;20438;-69
2022/08/21 02:18:00;;;;;;;6.15;3.78;;;17.00;99.90;;;;;;4992820;28;20038;-69
2022/08/21 02:20:47;;;;;;;7.72;3.55;;;17.00;99.90;;;;;;4979245;28;20058;-69
2022/08/21 02:23:14;;;;;;;8.77;4.00;;;17.00;99.90;;;;;;4977791;28;20093;-69
2022/08/21 02:25:41;;;;;;;6.32;3.63;;;17.00;99.90;;;;;;4977677;28;20042;-69
2022/08/21 02:28:15;;;;;;;7.97;3.92;;;17.00;99.90;;;;;;4977246;28;20046;-69
2022/08/21 02:30:44;;;;;;;11.20;3.63;;;17.10;99.90;;;;;;4977346;28;20062;-69
2022/08/21 02:33:11;;;;;;;7.20;3.95;;;17.10;99.90;;;;;;4978087;28;20046;-69
2022/08/21 02:35:38;;;;;;;7.47;3.92;;;17.10;99.90;;;;;;4977496;28;20054;-69
2022/08/21 02:38:07;;;;;;;4.72;3.60;;;17.10;99.90;;;;;;4976580;28;20065;-69
2022/08/21 02:40:35;;;;;;;8.27;4.00;;;17.10;99.90;;;;;;4977579;28;20061;-69
2022/08/21 02:43:03;;;;;;;7.68;3.90;;;17.00;99.90;;;;;;4977557;28;20047;-69
2022/08/21 02:45:29;;;;;;;9.63;3.90;;;17.00;99.90;;;;;;4977318;28;20472;-69
2022/08/21 02:47:59;;;;;;;6.68;3.95;;;17.00;99.90;;;;;;4977428;28;20047;-69
2022/08/21 02:50:31;;;;;;;7.60;3.63;;;17.00;99.90;;;;;;4977763;28;20042;-69
2022/08/21 02:52:58;;;;;;;9.13;4.53;;;17.00;99.90;;;;;;4977392;28;20042;-69
2022/08/21 02:55:26;;;;;;;9.57;4.40;;;17.00;99.90;;;;;;4977497;28;20054;-69
2022/08/21 02:57:54;;;;;;;7.25;4.50;;;17.00;99.90;;;;;;4976826;28;20042;-69
2022/08/21 03:00:20;;;;;;;8.15;4.28;;;16.90;99.90;;;;;;4977504;28;20042;-69
2022/08/21 03:02:48;;;;;;;10.02;4.60;;;16.90;99.90;;;;;;4977074;28;20090;-69
2022/08/21 03:05:14;;;;;;;6.75;4.32;;;16.90;99.90;;;;;;4977183;28;20426;-69
2022/08/21 03:07:42;;;;;;;6.93;3.97;;;16.90;99.90;;;;;;4977476;28;20046;-69
2022/08/21 03:10:08;;;;;;;8.20;4.40;;;16.90;99.90;;;;;;4977156;28;20039;-69
2022/08/21 03:12:35;;;;;;;10.45;4.97;;;17.00;99.90;;;;;;4977390;28;20333;-69
2022/08/21 03:15:06;;;;;;;9.95;4.55;;;16.90;99.90;;;;;;4977367;28;20058;-69
2022/08/21 03:17:32;;;;;;;9.75;4.55;;;16.80;99.90;;;;;;4977430;28;20122;-69
2022/08/21 03:19:58;;;;;;;7.03;4.45;;;16.80;99.90;;;;;;4977159;28;20501;-69
2022/08/21 03:22:24;;;;;;;8.55;4.75;;;16.90;99.90;;;;;;4977128;28;20078;-69
2022/08/21 03:24:51;;;;;;;12.32;4.80;;;16.90;99.90;;;;;;4977021;28;20049;-69
2022/08/21 03:27:17;;;;;;;11.55;4.93;;;16.90;99.90;;;;;;4978543;28;20066;-69
2022/08/21 03:29:42;;;;;;;7.80;4.28;;;16.90;99.90;;;;;;4980482;28;20437;-69
2022/08/21 03:32:09;;;;;;;8.25;4.20;;;16.90;99.90;;;;;;4980400;28;20055;-69
2022/08/21 03:34:36;;;;;;;8.93;5.20;;;16.90;99.90;;;;;;4980884;28;20369;-69
2022/08/21 03:37:03;;;;;;;8.40;4.50;;;16.90;99.90;;;;;;4980492;28;20049;-69
2022/08/21 03:39:29;;;;;;;8.23;5.20;;;16.90;99.90;;;;;;4980550;28;20434;-69
2022/08/21 03:41:55;;;;;;;11.68;5.60;;;16.90;99.90;;;;;;4980267;28;20088;-69
2022/08/21 03:44:20;;;;;;;10.38;4.47;;;16.90;99.90;;;;;;4979738;28;20093;-69
2022/08/21 03:46:46;;;;;;;7.93;4.38;;;16.90;99.90;;;;;;4980459;28;20041;-69
2022/08/21 03:49:12;;;;;;;12.40;4.68;;;16.90;99.90;;;;;;4980554;28;20037;-69
2022/08/21 03:51:37;;;;;;;10.55;4.75;;;16.90;99.90;;;;;;4980287;28;20038;-69
2022/08/21 03:54:03;;;;;;;10.00;5.53;;;16.80;99.90;;;;;;4980488;28;20105;-69
2022/08/21 03:56:29;;;;;;;8.30;5.25;;;16.80;99.90;;;;;;4979626;28;20043;-69
2022/08/21 03:58:55;;;;;;;10.18;5.47;;;16.80;99.90;;;;;;4980010;28;20544;-70
2022/08/21 04:01:21;;;;;;;8.70;4.85;;;16.90;99.90;;;;;;4979997;28;20047;-69
2022/08/21 04:03:46;;;;;;;11.25;5.25;;;16.90;99.90;;;;;;4980081;28;20043;-69
2022/08/21 04:06:12;;;;;;;7.95;4.90;;;16.90;99.90;;;;;;4980269;28;20035;-69
2022/08/21 04:08:38;;;;;;;9.70;4.80;;;16.90;99.90;;;;;;4979880;28;20093;-69
2022/08/21 04:11:05;;;;;;;9.90;5.18;;;16.80;99.90;;;;;;4979739;28;20034;-69
2022/08/21 04:13:31;;;;;;;10.98;4.72;;;16.80;99.90;;;;;;4979948;28;20121;-69
2022/08/21 04:15:58;;;;;;;12.23;5.35;;;16.80;99.90;;;;;;4979989;28;20074;-69
2022/08/21 04:18:24;;;;;;;9.52;4.75;;;16.80;99.90;;;;;;4979728;28;20093;-69
2022/08/21 04:20:52;;;;;;;11.85;5.50;;;16.80;99.90;;;;;;4979701;28;20384;-69
2022/08/21 04:23:19;;;;;;;8.27;5.15;;;16.80;99.90;;;;;;4979879;28;20330;-69
2022/08/21 04:25:45;;;;;;;11.57;5.00;;;16.80;99.90;;;;;;4979567;28;20050;-69
2022/08/21 04:28:11;;;;;;;9.73;5.32;;;16.80;99.90;;;;;;4979371;28;20043;-69
2022/08/21 04:30:36;;;;;;;9.25;5.40;;;16.80;99.90;;;;;;4979364;28;20062;-69
2022/08/21 04:33:03;;;;;;;7.88;4.93;;;16.80;99.90;;;;;;4979663;28;20465;-69
2022/08/21 04:35:30;;;;;;;7.53;4.88;;;16.80;99.90;;;;;;4979615;28;20050;-69
2022/08/21 04:37:56;;;;;;;9.75;5.20;;;16.80;99.90;;;;;;4979038;28;20050;-69
2022/08/21 04:40:25;;;;;;;10.25;5.22;;;16.80;99.90;;;;;;4994683;28;20397;-69
2022/08/21 04:43:02;;;;;;;7.93;5.28;;;16.80;99.90;;;;;;4978413;28;20047;-69
2022/08/21 04:45:31;;;;;;;10.50;5.35;;;16.80;99.90;;;;;;4979475;28;20333;-69
2022/08/21 04:47:59;;;;;;;9.70;5.38;;;16.90;99.90;;;;;;4979234;28;20043;-69
2022/08/21 04:50:41;;;;;;;13.10;5.88;;;16.80;99.90;;;;;;4979280;28;20043;-68
2022/08/21 04:53:11;;;;;;;12.10;5.70;;;16.90;99.90;;;;;;4979219;28;20117;-69
2022/08/21 04:55:38;;;;;;;7.78;4.20;;;17.00;99.90;;;;;;4979142;28;20046;-69
2022/08/21 04:58:06;;;;;;;10.02;5.18;;;17.00;99.90;;;;;;4978586;28;20049;-69
2022/08/21 05:00:32;;;;;;;10.43;5.25;;;17.00;99.90;;;;;;4978848;28;20333;-69
2022/08/21 05:02:59;;;;;;;10.65;5.38;;;17.00;99.90;;;;;;4979162;28;20035;-70
2022/08/21 05:05:25;;;;;;;11.93;5.22;;;17.00;99.90;;;;;;4978892;28;20050;-69
2022/08/21 05:07:52;;;;;;;9.15;4.40;;;17.00;99.90;;;;;;4978937;28;20047;-69
2022/08/21 05:10:17;;;;;;;9.65;5.05;;;17.00;99.90;;;;;;4978880;28;20396;-69
2022/08/21 05:12:44;;;;;;;9.32;4.88;;;17.00;99.90;;;;;;4978014;28;20126;-69
2022/08/21 05:15:14;;;;;;;10.05;4.68;;;17.00;99.90;;;;;;4978872;28;20039;-69
2022/08/21 05:17:42;;;;;;;12.05;5.25;;;17.10;99.90;;;;;;4978594;28;20050;-69
2022/08/21 05:20:13;;;;;;;8.07;4.35;;;17.20;99.90;;;;;;4978885;28;20067;-69
2022/08/21 05:22:38;;;;;;;8.90;4.18;;;17.20;99.90;;;;;;4978601;28;20333;-69
2022/08/21 05:25:06;;;;;;;14.50;4.97;;;17.30;99.90;;;;;;4978867;28;20119;-69
2022/08/21 05:27:32;;;;;;;9.52;4.80;;;17.40;99.90;;;;;;4977184;28;20057;-69
2022/08/21 05:29:58;;;;;;;9.90;4.22;;;17.50;99.90;;;;;;4978456;28;20456;-69
2022/08/21 05:32:24;;;;;;;9.57;4.18;;;17.60;99.90;;;;;;4978532;28;20438;-69
2022/08/21 05:34:50;;;;;;;8.75;4.40;;;17.70;99.90;;;;;;4978471;28;20042;-69
2022/08/21 05:37:16;;;;;;;9.02;4.85;;;17.80;99.90;;;;;;4978607;28;20043;-69
2022/08/21 05:39:41;;;;;;;11.40;4.50;;;18.00;99.90;;;;;;4993568;28;20097;-69
2022/08/21 05:42:07;;;;;;;8.23;3.95;;;18.10;99.90;;;;;;4978431;28;20109;-69
2022/08/21 05:44:33;;;;;;;7.65;4.18;;;18.20;99.90;;;;;;4978321;28;20120;-69
2022/08/21 05:47:10;;;;;;;15.88;5.68;;;18.30;99.90;;;;;;4978093;28;20162;-69
2022/08/21 05:49:36;;;;;;;9.00;4.40;;;18.40;99.90;;;;;;4977268;28;20474;-69
2022/08/21 05:52:03;;;;;;;8.98;4.32;;;18.50;99.90;;;;;;4978231;28;20058;-69
2022/08/21 05:54:29;;;;;;;14.85;4.88;;;18.60;99.90;;;;;;4977177;28;20049;-69
2022/08/21 05:56:55;;;;;;;12.38;3.95;;;18.70;99.90;;;;;;4977747;28;20050;-69
2022/08/21 05:59:21;;;;;;;7.75;4.15;;;18.80;99.90;;;;;;4978150;28;20042;-69
2022/08/21 06:01:47;;;;;;;12.85;3.97;;;18.90;99.90;;;;;;4977787;28;20043;-69
2022/08/21 06:04:13;;;;;;;12.60;4.65;;;18.90;99.90;;;;;;4978127;28;20042;-69
2022/08/21 06:06:39;;;;;;;8.38;3.83;;;19.00;99.90;;;;;;4993254;28;20035;-69
2022/08/21 06:09:05;;;;;;;11.70;4.57;;;19.10;99.90;;;;;;4978004;28;20086;-69
2022/08/21 06:11:32;;;;;;;9.18;4.30;;;19.20;99.90;;;;;;4977682;28;20042;-69
2022/08/21 06:13:58;;;;;;;13.80;4.47;;;19.30;99.90;;;;;;4977798;28;20058;-69
2022/08/21 06:16:25;;;;;;;12.95;4.63;;;19.40;99.90;;;;;;4977991;28;20050;-69
2022/08/21 06:18:51;;;;;;;9.15;4.10;;;19.50;99.90;;;;;;4977605;28;20461;-70
2022/08/21 06:21:17;;;;;;;12.27;4.35;;;19.20;99.90;;;;;;4977846;28;20043;-69
2022/08/21 06:23:43;;;;;;;12.00;4.38;;;19.30;99.90;;;;;;4977729;28;20038;-69
2022/08/21 06:26:10;;;;;;;13.32;4.70;;;19.40;99.90;;;;;;4993129;28;20101;-69
2022/08/21 06:28:37;;;;;;;12.73;4.55;;;19.50;99.90;;;;;;4977116;28;20043;-69
2022/08/21 06:31:14;;;;;;;12.13;4.75;;;19.50;99.90;;;;;;4976367;28;20061;-69
2022/08/21 06:33:40;;;;;;;9.90;4.00;;;19.60;99.90;;;;;;4977720;28;20382;-69
2022/08/21 06:36:06;;;;;;;10.35;3.92;;;19.60;99.90;;;;;;4977698;28;20329;-69
2022/08/21 06:38:32;;;;;;;16.30;3.90;;;19.70;99.90;;;;;;4977732;28;20039;-69
2022/08/21 06:40:58;;;;;;;10.27;4.03;;;19.80;99.90;;;;;;4977479;28;20038;-69
2022/08/21 06:43:23;;;;;;;15.30;4.68;;;19.70;99.90;;;;;;4977217;28;20121;-69
2022/08/21 06:45:49;;;;;;;7.97;3.50;;;19.90;99.90;;;;;;4975167;28;20042;-68
2022/08/21 06:48:14;;;;;;;7.95;4.10;;;19.90;99.90;;;;;;4975134;28;20039;-69
2022/08/21 06:50:40;;;;;;;13.20;4.00;;;20.00;99.90;;;;;;4990534;28;20089;-69
2022/08/21 06:53:09;;;;;;;10.05;4.03;;;20.10;99.90;;;;;;4976749;28;20053;-69
2022/08/21 06:55:36;;;;;;;12.10;3.50;;;20.00;99.90;;;;;;4976274;28;20520;-68
2022/08/21 06:58:02;;;;;;;11.93;3.55;;;20.00;99.90;;;;;;4976443;28;20042;-68
2022/08/21 07:00:29;;;;;;;9.82;3.70;;;20.20;99.90;;;;;;4974819;28;20333;-69
2022/08/21 07:02:55;;;;;;;14.20;3.78;;;20.30;99.90;;;;;;4977828;28;20105;-69
2022/08/21 07:05:21;;;;;;;9.55;3.03;;;20.50;99.90;;;;;;4977832;28;20038;-72
2022/08/21 07:07:47;;;;;;;10.00;3.47;;;20.70;99.90;;;;;;4978889;28;20098;-70
2022/08/21 07:10:14;;;;;;;10.85;3.53;;;20.70;99.90;;;;;;4979405;28;20047;-70
2022/08/21 07:12:41;;;;;;;9.27;3.47;;;20.70;99.90;;;;;;4978438;28;20039;-68
2022/08/21 07:15:07;;;;;;;8.30;2.97;;;20.80;99.90;;;;;;4980937;28;20050;-68
2022/08/21 07:17:32;;;;;;;11.43;3.30;;;20.80;99.90;;;;;;4980688;28;20346;-68
2022/08/21 07:19:58;;;;;;;12.50;3.47;;;20.80;99.90;;;;;;4980874;28;20035;-68
2022/08/21 07:22:24;;;;;;;12.52;3.28;;;20.90;99.90;;;;;;4963794;28;20497;-68
2022/08/21 07:24:49;;;;;;;10.18;2.70;;;21.10;99.90;;;;;;4961176;28;20043;-68
2022/08/21 07:27:15;;;;;;;7.70;2.15;;;21.00;99.90;;;;;;4975956;28;20043;-68
2022/08/21 07:29:41;;;;;;;11.63;2.92;;;20.90;99.90;;;;;;4971591;28;20051;-68
2022/08/21 07:32:07;;;;;;;8.63;2.80;;;21.00;99.90;;;;;;4981386;28;20059;-70
2022/08/21 07:34:32;;;;;;;8.13;2.33;;;20.90;99.90;;;;;;4980380;28;20090;-69
2022/08/21 07:36:58;;;;;;;11.25;2.60;;;21.00;99.90;;;;;;4994832;28;20120;-71
2022/08/21 07:39:24;;;;;;;7.55;2.33;;;21.00;99.90;;;;;;4979492;28;20051;-71
2022/08/21 07:41:50;;;;;;;13.10;2.40;;;20.90;99.90;;;;;;4980215;28;20050;-68
2022/08/21 07:44:15;;;;;;;8.60;2.05;;;21.10;99.90;;;;;;4980592;28;20066;-68
2022/08/21 07:46:41;;;;;;;8.10;1.85;;;21.10;99.90;;;;;;4980329;28;20062;-69
2022/08/21 07:49:07;;;;;;;13.40;2.30;;;21.30;99.90;;;;;;4995784;28;20034;-69
2022/08/21 07:51:33;;;;;;;8.57;2.00;;;21.20;99.90;;;;;;4980250;28;20116;-68
2022/08/21 07:54:00;;;;;;;8.77;2.20;;;21.20;99.90;;;;;;4980298;28;20047;-69
2022/08/21 07:56:27;;;;;;;9.73;1.80;;;21.30;99.90;;;;;;4980055;28;20050;-70
2022/08/21 07:58:53;;;;;;;8.95;2.45;;;21.30;99.90;;;;;;4979943;28;20039;-69
2022/08/21 08:01:18;;;;;;;8.20;1.88;;;21.20;99.90;;;;;;4995216;28;20345;-68
2022/08/21 08:03:45;;;;;;;7.85;2.13;;;21.40;99.90;;;;;;4979015;28;20045;-68
2022/08/21 08:06:12;;;;;;;10.60;1.90;;;21.30;99.90;;;;;;4980238;28;20042;-69
2022/08/21 08:08:41;;;;;;;8.13;1.90;;;21.50;99.90;;;;;;4979832;28;20074;-71
2022/08/21 08:11:10;;;;;;;8.85;1.92;;;21.50;99.90;;;;;;4995075;28;20117;-71
2022/08/21 08:13:44;;;;;;;7.80;1.60;;;21.50;99.90;;;;;;4979128;28;20101;-71
2022/08/21 08:16:10;;;;;;;12.63;2.60;;;21.70;99.90;;;;;;4995034;28;20121;-70
2022/08/21 08:18:35;;;;;;;10.02;1.60;;;21.60;99.90;;;;;;4980064;28;20113;-70
2022/08/21 08:21:01;;;;;;;13.63;2.35;;;21.70;99.90;;;;;;4979704;28;20073;-70
2022/08/21 08:23:27;;;;;;;10.10;1.70;;;21.80;99.90;;;;;;4994953;28;20114;-70
2022/08/21 08:25:53;;;;;;;8.98;1.77;;;21.90;99.90;;;;;;4978868;28;20039;-70
2022/08/21 08:28:18;;;;;;;11.35;1.83;;;21.80;99.90;;;;;;4978469;28;20053;-70
2022/08/21 08:30:47;;;;;;;8.52;1.65;;;21.90;99.90;;;;;;4979310;28;20430;-70
2022/08/21 08:33:14;;;;;;;11.30;1.88;;;22.10;99.90;;;;;;4979659;28;20085;-70
2022/08/21 08:35:42;;;;;;;8.27;1.65;;;22.30;99.90;;;;;;4979772;28;20070;-70
2022/08/21 08:38:08;;;;;;;11.52;1.92;;;22.40;99.90;;;;;;4979391;28;20101;-68
2022/08/21 08:40:59;;;;;;;7.57;1.63;;;22.70;99.90;;;;;;4979640;28;20042;-68
2022/08/21 08:43:27;;;;;;;7.22;1.92;;;22.60;99.90;;;;;;4979240;28;20043;-68
2022/08/21 08:45:57;;;;;;;6.88;1.25;;;22.80;99.90;;;;;;4979445;28;20097;-72
2022/08/21 08:49:08;;;;;;;8.00;1.60;;;23.00;99.90;;;;;;4979107;28;20070;-69
2022/08/21 08:52:07;;;;;;;8.25;1.40;;;23.00;99.90;;;;;;4993043;28;20054;-69
2022/08/21 08:54:50;;;;;;;7.78;1.75;;;23.10;99.90;;;;;;4983819;28;20130;-69
2022/08/21 08:57:23;;;;;;;11.45;2.30;;;23.30;99.90;;;;;;4978903;28;20114;-69
2022/08/21 08:59:53;;;;;;;5.75;1.65;;;23.40;99.90;;;;;;4979158;28;20049;-69
2022/08/21 09:02:20;;;;;;;11.43;1.42;;;23.50;99.90;;;;;;4979034;28;20038;-68
2022/08/21 09:04:48;;;;;;;9.25;1.85;;;23.40;99.90;;;;;;4978867;28;20074;-68
2022/08/21 09:07:37;;;;;;;11.82;2.00;;;23.40;99.90;;;;;;4978741;28;20031;-69
2022/08/21 09:10:22;;;;;;;10.07;1.77;;;23.50;99.90;;;;;;4978592;28;20034;-91
2022/08/21 09:13:36;;;;;;;12.43;2.38;;;23.40;99.90;;;;;;4978017;28;20073;-67
2022/08/21 09:16:09;;;;;;;11.13;1.90;;;23.10;99.90;;;;;;4979006;28;20101;-68
2022/08/21 09:18:41;;;;;;;8.90;2.38;;;23.30;99.90;;;;;;4978651;28;20109;-68
2022/08/21 09:21:30;;;;;;;10.30;2.17;;;23.50;99.90;;;;;;4978872;28;20050;-68
2022/08/21 09:24:22;;;;;;;9.07;1.95;;;23.60;99.90;;;;;;4996966;28;20055;-68
2022/08/21 09:27:09;;;;;;;7.82;2.30;;;23.80;99.90;;;;;;4977486;28;20050;-68
2022/08/21 09:29:39;;;;;;;11.25;2.28;;;24.20;99.90;;;;;;4978402;28;20093;-68
2022/08/21 09:32:20;;;;;;;11.07;2.33;;;24.20;99.90;;;;;;4978425;28;20054;-68
2022/08/21 09:35:13;;;;;;;6.72;1.77;;;23.70;99.90;;;;;;4978493;28;20039;-68
2022/08/21 09:37:53;;;;;;;9.98;2.22;;;23.50;99.90;;;;;;4978582;28;20097;-68
2022/08/21 09:40:37;;;;;;;9.77;2.30;;;23.80;99.90;;;;;;4978186;28;20070;-69
2022/08/21 09:43:03;;;;;;;11.43;2.63;;;23.60;99.90;;;;;;4978363;28;20054;-68
2022/08/21 09:45:32;;;;;;;11.43;1.92;;;23.10;99.90;;;;;;4972406;28;20039;-68
2022/08/21 09:48:18;;;;;;;9.95;2.20;;;23.20;99.90;;;;;;4975238;28;20045;-68
2022/08/21 09:50:45;;;;;;;11.90;3.55;;;23.70;99.90;;;;;;4989657;28;20054;-68
2022/08/21 09:53:26;;;;;;;7.90;2.22;;;23.80;99.90;;;;;;4976516;28;20055;-69
2022/08/21 09:58:45;;;;;;;8.77;2.08;;;24.20;99.90;;;;;;4977657;28;20057;-68
2022/08/21 10:01:16;;;;;;;13.38;2.78;;;24.30;99.90;;;;;;4978065;28;20043;-68
2022/08/21 10:03:42;;;;;;;10.60;1.67;;;24.70;99.90;;;;;;4978189;28;20049;-68
2022/08/21 10:06:20;;;;;;;9.45;1.90;;;25.00;99.90;;;;;;4977785;28;20400;-68
2022/08/21 10:08:45;;;;;;;9.93;1.80;;;25.20;99.90;;;;;;4977756;28;20038;-68
2022/08/21 10:11:16;;;;;;;9.10;1.88;;;25.50;99.90;;;;;;4977768;28;20053;-68
2022/08/21 10:14:27;;;;;;;8.13;1.98;;;25.80;99.90;;;;;;4993096;28;20503;-68
2022/08/21 10:17:42;;;;;;;6.60;1.80;;;25.70;99.60;;;;;;4994864;28;20133;-68
2022/08/21 10:20:19;;;;;;;10.98;2.10;;;25.80;99.90;;;;;;5014744;28;20107;-68
2022/08/21 10:23:07;;;;;;;7.18;1.98;;;26.00;99.90;;;;;;5014818;28;20049;-80
2022/08/21 10:25:32;;;;;;;13.70;1.95;;;25.50;99.10;;;;;;4982705;28;20314;-71
2022/08/21 10:28:27;;;;;;;8.52;1.73;;;24.90;99.50;;;;;;4992389;28;20042;-71
2022/08/21 10:31:12;;;;;;;8.45;1.92;;;24.40;99.60;;;;;;4976276;28;20174;-79
2022/08/21 10:33:52;;;;;;;10.10;2.08;;;23.90;99.90;;;;;;4976895;28;20069;-82
2022/08/21 10:36:35;;;;;;;7.45;1.65;;;24.20;99.90;;;;;;4976265;28;20042;-84
2022/08/21 10:39:07;;;;;;;11.07;1.75;;;24.30;99.70;;;;;;4993077;28;20050;-85
2022/08/21 10:41:52;;;;;;;8.18;1.40;;;24.30;99.90;;;;;;4992965;28;20088;-85
2022/08/21 10:45:09;;;;;;;7.70;1.70;;;24.40;99.90;;;;;;4960332;28;20430;-84
2022/08/21 10:47:53;;;;;;;6.63;1.58;;;24.20;99.80;;;;;;5014381;28;20045;-86
2022/08/21 10:50:39;;;;;;;10.18;1.50;;;24.00;99.90;;;;;;4978017;28;20385;-84
2022/08/21 10:53:16;;;;;;;12.80;2.00;;;23.80;99.90;;;;;;4976644;28;20045;-85
2022/08/21 10:56:03;;;;;;;10.95;1.92;;;23.90;99.90;;;;;;4977562;28;20057;-85
2022/08/21 10:58:34;;;;;;;10.40;1.80;;;23.60;99.90;;;;;;4992237;28;20178;-84
2022/08/21 11:01:28;;;;;;;8.77;1.75;;;23.20;99.90;;;;;;4977403;28;20047;-68
2022/08/21 11:04:16;;;;;;;11.30;1.90;;;23.10;99.90;;;;;;4977429;28;20109;-69
2022/08/21 11:06:53;;;;;;;10.05;1.60;;;23.40;99.90;;;;;;4977511;28;20046;-68
2022/08/21 11:09:21;;;;;;;12.40;1.75;;;23.60;99.90;;;;;;4977535;28;20097;-68
2022/08/21 11:12:04;;;;;;;5.60;1.67;;;23.60;99.90;;;;;;4977208;28;20043;-68
2022/08/21 11:14:33;;;;;;;8.90;1.85;;;23.60;99.90;;;;;;4977462;28;20046;-68
2022/08/21 11:17:07;;;;;;;5.88;1.70;;;23.70;99.90;;;;;;4977041;28;20126;-70
2022/08/21 11:19:43;;;;;;;10.07;1.92;;;23.70;99.90;;;;;;4977064;28;20345;-68
2022/08/21 11:22:51;;;;;;;8.27;1.85;;;23.60;99.90;;;;;;4977376;28;20053;-68
2022/08/21 11:25:27;;;;;;;8.82;1.83;;;23.50;99.90;;;;;;4977128;28;20035;-74
2022/08/21 11:28:10;;;;;;;10.50;1.98;;;23.30;99.90;;;;;;4976582;28;20046;-69
2022/08/21 11:30:57;;;;;;;11.00;2.03;;;23.10;99.90;;;;;;4975830;28;20062;-70
2022/08/21 11:33:41;;;;;;;8.75;1.88;;;22.90;99.90;;;;;;4976493;28;20327;-70
2022/08/21 11:36:13;;;;;;;14.88;2.20;;;22.90;99.90;;;;;;4977315;28;20047;-70
2022/08/21 11:38:53;;;;;;;8.02;1.98;;;22.80;99.90;;;;;;4976015;28;20129;-70
2022/08/21 11:41:37;;;;;;;12.88;2.95;;;22.70;99.90;;;;;;4976988;28;20042;-70
2022/08/21 11:44:40;;;;;;;7.70;2.17;;;22.60;99.90;;;;;;4977137;28;20082;-70
2022/08/21 11:47:24;;;;;;;7.50;2.15;;;22.60;99.90;;;;;;4977513;28;20092;-70
2022/08/21 11:50:14;;;;;;;5.82;1.90;;;22.60;99.90;;;;;;4982644;28;20049;-70
2022/08/21 11:52:56;;;;;;;10.50;2.45;;;22.70;99.90;;;;;;4995420;28;20342;-70
2022/08/21 11:55:56;;;;;;;8.95;1.95;;;23.20;99.90;;;;;;4980304;28;20326;-70
2022/08/21 11:58:43;;;;;;;13.45;2.70;;;23.90;99.90;;;;;;4999392;28;20110;-70
2022/08/21 12:01:16;;;;;;;15.02;2.72;;;24.70;99.90;;;;;;4980497;28;20049;-70
2022/08/21 12:04:02;;;;;;;8.23;2.03;;;24.80;99.90;;;;;;4979907;28;20057;-69
2022/08/21 12:06:31;;;;;;;8.95;2.03;;;24.80;99.90;;;;;;4980277;28;20122;-69
2022/08/21 12:09:03;;;;;;;10.35;2.38;;;24.90;99.90;;;;;;4979863;28;20089;-84
2022/08/21 12:11:30;;;;;;;14.70;2.45;;;24.90;99.90;;;;;;4979176;28;20043;-83
2022/08/21 12:14:00;;;;;;;9.32;2.38;;;24.80;99.90;;;;;;4980047;28;20046;-82
2022/08/21 12:16:33;;;;;;;7.38;2.10;;;24.90;99.90;;;;;;4979074;28;20137;-82
2022/08/21 12:19:07;;;;;;;6.15;1.88;;;24.60;99.90;;;;;;4978780;28;20046;-83
2022/08/21 12:21:34;;;;;;;7.47;1.75;;;24.40;99.90;;;;;;4978951;28;20049;-73
2022/08/21 12:24:17;;;;;;;8.27;1.52;;;24.20;99.80;;;;;;4994841;28;20042;-74
2022/08/21 12:26:59;;;;;;;10.27;1.88;;;23.90;99.40;;;;;;4978652;28;20043;-69
2022/08/21 12:29:31;;;;;;;10.20;1.60;;;24.00;99.90;;;;;;4979307;28;20089;-69
2022/08/21 12:32:27;;;;;;;8.15;2.10;;;24.30;99.60;;;;;;4979712;28;20063;-69
2022/08/21 12:35:05;;;;;;;9.23;2.00;;;24.50;99.80;;;;;;4981162;28;20097;-69
2022/08/21 12:37:52;;;;;;;7.45;2.00;;;24.60;99.90;;;;;;4979544;28;20054;-69
2022/08/21 12:40:51;;;;;;;14.05;2.40;;;24.60;99.90;;;;;;4979740;28;20047;-68
2022/08/21 12:43:36;;;;;;;7.90;1.83;;;24.60;99.90;;;;;;4987039;28;20071;-68
2022/08/21 12:46:04;;;;;;;6.88;1.55;;;24.60;99.90;;;;;;4979284;28;20050;-69
2022/08/21 12:48:51;;;;;;;8.80;2.08;;;24.50;99.70;;;;;;4978311;28;20051;-68
2022/08/21 12:51:48;;;;;;;6.97;1.50;;;24.60;99.70;;;;;;4979487;28;20049;-69
2022/08/21 12:54:26;;;;;;;12.73;1.98;;;24.40;99.80;;;;;;4979220;28;20105;-69
2022/08/21 12:57:01;;;;;;;10.13;2.10;;;24.40;99.90;;;;;;4979000;28;20047;-68
2022/08/21 12:59:28;;;;;;;14.05;2.05;;;24.50;99.90;;;;;;4978544;28;20049;-70
2022/08/21 13:01:55;;;;;;;8.02;1.90;;;24.60;99.80;;;;;;4979047;28;20399;-69
2022/08/21 13:04:48;;;;;;;9.35;1.90;;;24.70;99.90;;;;;;4979120;28;20049;-70
2022/08/21 13:07:22;;;;;;;5.43;1.63;;;25.10;99.70;;;;;;4980111;28;20508;-70
2022/08/21 13:09:55;;;;;;;8.50;1.55;;;25.10;99.30;;;;;;4978880;28;20042;-70